createdAt,value
2018-05-16T00:00:42.325Z,101019.86
2018-05-16T00:01:45.645Z,101016.66
2018-05-16T00:02:48.975Z,101023.48
2018-05-16T00:03:52.307Z,101019.52
2018-05-16T00:04:55.630Z,101012.55
2018-05-16T00:05:58.986Z,101018.95
2018-05-16T00:07:02.343Z,101020.39
2018-05-16T00:08:05.714Z,101020.16
2018-05-16T00:09:09.032Z,101021.64
2018-05-16T00:10:12.366Z,101026.73
2018-05-16T00:11:15.710Z,101029.51
2018-05-16T00:12:19.038Z,101024.20
2018-05-16T00:13:22.370Z,101027.82
2018-05-16T00:14:25.708Z,101025.62
2018-05-16T00:15:29.042Z,101032.37
2018-05-16T00:16:32.409Z,101031.64
2018-05-16T00:17:35.743Z,101034.34
2018-05-16T00:18:39.080Z,101037.70
2018-05-16T00:19:42.410Z,101035.93
2018-05-16T00:20:45.739Z,101040.59
2018-05-16T00:21:49.117Z,101034.94
2018-05-16T00:22:52.418Z,101038.26
2018-05-16T00:23:55.751Z,101036.23
2018-05-16T00:24:59.156Z,101034.58
2018-05-16T00:26:02.395Z,101041.05
2018-05-16T00:27:05.750Z,101034.52
2018-05-16T00:28:09.099Z,101036.95
2018-05-16T00:29:12.419Z,101031.34
2018-05-16T00:30:15.754Z,101034.03
2018-05-16T00:31:19.154Z,101036.38
2018-05-16T00:32:22.507Z,101036.19
2018-05-16T00:33:25.815Z,101032.56
2018-05-16T00:34:29.171Z,101027.18
2018-05-16T00:35:32.458Z,101027.80
2018-05-16T00:36:35.786Z,101021.98
2018-05-16T00:37:39.131Z,101024.77
2018-05-16T00:38:42.454Z,101028.80
2018-05-16T00:39:45.791Z,101027.03
2018-05-16T00:40:49.154Z,101028.80
2018-05-16T00:41:52.469Z,101028.88
2018-05-16T00:42:55.818Z,101025.46
2018-05-16T00:43:59.313Z,101027.73
2018-05-16T00:45:02.707Z,101025.04
2018-05-16T00:46:06.055Z,101019.66
2018-05-16T00:47:09.400Z,101025.46
2018-05-16T00:48:12.750Z,101020.07
2018-05-16T00:49:16.080Z,101022.42
2018-05-16T00:50:19.470Z,101021.08
2018-05-16T00:51:32.558Z,101031.36
2018-05-16T00:52:35.876Z,101029.44
2018-05-16T00:53:39.223Z,101034.41
2018-05-16T00:54:42.541Z,101031.21
2018-05-16T00:55:45.858Z,101034.72
2018-05-16T00:56:49.171Z,101037.02
2018-05-16T00:57:52.491Z,101030.59
2018-05-16T00:58:55.838Z,101035.90
2018-05-16T00:59:59.151Z,101032.28
2018-05-16T01:01:02.488Z,101032.70
2018-05-16T01:02:05.837Z,101036.23
2018-05-16T01:03:09.199Z,101032.28
2018-05-16T01:04:12.544Z,101034.98
2018-05-16T01:05:16.288Z,101031.44
2018-05-16T01:06:19.552Z,101036.32
2018-05-16T01:07:22.879Z,101031.86
2018-05-16T01:08:26.201Z,101030.59
2018-05-16T01:09:29.554Z,101033.71
2018-05-16T01:10:32.872Z,101030.28
2018-05-16T01:11:36.200Z,101035.98
2018-05-16T01:12:39.533Z,101039.18
2018-05-16T01:13:43.548Z,101031.63
2018-05-16T01:14:46.954Z,101032.44
2018-05-16T01:15:50.288Z,101030.78
2018-05-16T01:16:53.635Z,101032.98
2018-05-16T01:17:56.963Z,101033.37
2018-05-16T01:19:00.579Z,101029.75
2018-05-16T01:20:03.937Z,101034.63
2018-05-16T01:21:07.264Z,101035.56
2018-05-16T01:22:10.603Z,101046.34
2018-05-16T01:23:13.935Z,101045.41
2018-05-16T01:24:17.281Z,101040.53
2018-05-16T01:25:20.617Z,101045.49
2018-05-16T01:26:23.942Z,101042.91
2018-05-16T01:27:27.281Z,101041.65
2018-05-16T01:28:30.610Z,101045.27
2018-05-16T01:29:33.922Z,101047.45
2018-05-16T01:30:37.274Z,101053.35
2018-05-16T01:31:40.606Z,101057.39
2018-05-16T01:32:43.918Z,101051.16
2018-05-16T01:33:47.242Z,101057.89
2018-05-16T01:34:50.579Z,101058.90
2018-05-16T01:35:53.941Z,101059.86
2018-05-16T01:36:57.248Z,101060.67
2018-05-16T01:38:00.571Z,101057.47
2018-05-16T01:39:04.163Z,101057.89
2018-05-16T01:40:07.484Z,101061.02
2018-05-16T01:41:10.838Z,101057.89
2018-05-16T01:42:14.158Z,101056.63
2018-05-16T01:43:17.494Z,101059.44
2018-05-16T01:44:21.001Z,101059.44
2018-05-16T01:45:24.347Z,101056.74
2018-05-16T01:46:27.697Z,101056.82
2018-05-16T01:47:31.024Z,101056.31
2018-05-16T01:48:34.479Z,101062.63
2018-05-16T01:49:37.811Z,101059.52
2018-05-16T01:50:41.143Z,101068.53
2018-05-16T01:51:44.490Z,101065.41
2018-05-16T01:52:47.835Z,101067.87
2018-05-16T01:53:51.170Z,101070.81
2018-05-16T01:54:54.508Z,101066.40
2018-05-16T01:55:57.839Z,101070.61
2018-05-16T01:57:01.176Z,101071.47
2018-05-16T01:58:04.508Z,101072.09
2018-05-16T01:59:07.846Z,101067.76
2018-05-16T02:00:11.200Z,101071.73
2018-05-16T02:01:14.767Z,101069.47
2018-05-16T02:02:18.114Z,101068.55
2018-05-16T02:03:21.428Z,101064.86
2018-05-16T02:04:24.754Z,101067.98
2018-05-16T02:05:28.096Z,101064.37
2018-05-16T02:06:31.521Z,101062.93
2018-05-16T02:07:34.862Z,101067.05
2018-05-16T02:08:38.197Z,101059.58
2018-05-16T02:09:41.529Z,101060.42
2018-05-16T02:10:44.867Z,101061.66
2018-05-16T02:11:48.184Z,101055.70
2018-05-16T02:12:51.535Z,101053.66
2018-05-16T02:13:54.884Z,101055.30
2018-05-16T02:14:58.211Z,101052.34
2018-05-16T02:16:01.538Z,101055.17
2018-05-16T02:17:04.875Z,101056.78
2018-05-16T02:18:08.217Z,101057.02
2018-05-16T02:19:11.541Z,101052.39
2018-05-16T02:20:14.890Z,101061.05
2018-05-16T02:21:18.211Z,101061.89
2018-05-16T02:22:21.529Z,101062.12
2018-05-16T02:23:24.890Z,101069.62
2018-05-16T02:24:28.224Z,101067.69
2018-05-16T02:25:31.546Z,101062.30
2018-05-16T02:26:34.859Z,101068.00
2018-05-16T02:27:38.330Z,101063.53
2018-05-16T02:28:41.671Z,101060.34
2018-05-16T02:29:45.003Z,101059.76
2018-05-16T02:30:48.320Z,101064.22
2018-05-16T02:31:51.633Z,101056.88
2018-05-16T02:32:54.950Z,101068.91
2018-05-16T02:33:58.285Z,101058.14
2018-05-16T02:35:01.613Z,101063.02
2018-05-16T02:36:04.905Z,101069.67
2018-05-16T02:37:08.250Z,101065.64
2018-05-16T02:38:11.575Z,101069.33
2018-05-16T02:39:14.929Z,101067.06
2018-05-16T02:40:18.247Z,101068.91
2018-05-16T02:41:21.570Z,101069.75
2018-05-16T02:42:24.892Z,101073.03
2018-05-16T02:43:28.205Z,101073.45
2018-05-16T02:44:31.755Z,101070.84
2018-05-16T02:45:35.074Z,101069.10
2018-05-16T02:46:38.397Z,101068.15
2018-05-16T02:47:41.812Z,101063.30
2018-05-16T02:48:45.114Z,101064.11
2018-05-16T02:49:48.454Z,101063.72
2018-05-16T02:50:51.759Z,101061.41
2018-05-16T02:51:55.063Z,101059.56
2018-05-16T02:52:58.388Z,101056.45
2018-05-16T02:54:01.700Z,101061.02
2018-05-16T02:55:05.031Z,101056.56
2018-05-16T02:56:08.364Z,101054.68
2018-05-16T02:57:11.672Z,101050.75
2018-05-16T02:58:14.993Z,101048.56
2018-05-16T02:59:18.302Z,101054.03
2018-05-16T03:00:21.636Z,101053.61
2018-05-16T03:01:24.959Z,101054.03
2018-05-16T03:02:28.328Z,101055.80
2018-05-16T03:03:31.662Z,101056.38
2018-05-16T03:04:34.961Z,101051.92
2018-05-16T03:05:38.299Z,101052.45
2018-05-16T03:06:41.607Z,101050.77
2018-05-16T03:07:44.915Z,101049.92
2018-05-16T03:08:48.225Z,101050.34
2018-05-16T03:09:51.541Z,101053.88
2018-05-16T03:10:54.945Z,101054.30
2018-05-16T03:11:58.243Z,101052.03
2018-05-16T03:13:01.548Z,101053.27
2018-05-16T03:14:04.897Z,101059.19
2018-05-16T03:15:08.213Z,101066.73
2018-05-16T03:16:11.559Z,101067.69
2018-05-16T03:17:14.883Z,101071.73
2018-05-16T03:18:18.295Z,101073.47
2018-05-16T03:19:21.651Z,101073.58
2018-05-16T03:20:24.956Z,101074.00
2018-05-16T03:21:28.457Z,101077.62
2018-05-16T03:22:31.783Z,101072.73
2018-05-16T03:23:35.114Z,101073.58
2018-05-16T03:24:38.418Z,101069.62
2018-05-16T03:25:42.010Z,101066.08
2018-05-16T03:26:45.350Z,101072.81
2018-05-16T03:27:48.673Z,101074.23
2018-05-16T03:28:52.156Z,101076.70
2018-05-16T03:29:55.472Z,101079.55
2018-05-16T03:30:58.800Z,101080.16
2018-05-16T03:32:02.155Z,101077.13
2018-05-16T03:33:05.487Z,101073.78
2018-05-16T03:34:08.803Z,101076.14
2018-05-16T03:35:12.115Z,101072.59
2018-05-16T03:36:15.420Z,101070.91
2018-05-16T03:37:18.751Z,101076.83
2018-05-16T03:38:22.081Z,101076.91
2018-05-16T03:39:25.406Z,101078.41
2018-05-16T03:40:28.713Z,101074.56
2018-05-16T03:41:32.049Z,101076.07
2018-05-16T03:42:35.411Z,101078.50
2018-05-16T03:43:38.985Z,101074.63
2018-05-16T03:44:42.590Z,101070.01
2018-05-16T03:45:45.928Z,101072.97
2018-05-16T03:46:49.259Z,101071.86
2018-05-16T03:47:52.611Z,101071.20
2018-05-16T03:48:55.925Z,101068.44
2018-05-16T03:49:59.242Z,101071.40
2018-05-16T03:51:02.571Z,101079.28
2018-05-16T03:52:05.956Z,101081.83
2018-05-16T03:53:09.235Z,101090.17
2018-05-16T03:54:12.581Z,101088.82
2018-05-16T03:55:15.889Z,101086.97
2018-05-16T03:56:19.284Z,101083.70
2018-05-16T03:57:34.183Z,101084.05
2018-05-16T03:58:49.259Z,101092.20
2018-05-16T04:00:04.322Z,101092.38
2018-05-16T04:01:19.262Z,101093.65
2018-05-16T04:02:34.446Z,101091.64
2018-05-16T04:03:49.644Z,101085.58
2018-05-16T04:04:52.971Z,101077.35
2018-05-16T04:05:56.282Z,101084.00
2018-05-16T04:06:59.590Z,101089.61
2018-05-16T04:08:02.923Z,101094.98
2018-05-16T04:09:06.262Z,101094.98
2018-05-16T04:10:09.584Z,101092.72
2018-05-16T04:11:12.912Z,101090.03
2018-05-16T04:12:16.238Z,101091.37
2018-05-16T04:13:19.568Z,101086.42
2018-05-16T04:14:22.960Z,101092.30
2018-05-16T04:15:26.275Z,101098.52
2018-05-16T04:16:29.591Z,101093.57
2018-05-16T04:17:32.908Z,101096.18
2018-05-16T04:18:36.218Z,101092.57
2018-05-16T04:19:39.559Z,101094.41
2018-05-16T04:20:43.095Z,101089.88
2018-05-16T04:21:46.405Z,101092.14
2018-05-16T04:22:49.719Z,101092.07
2018-05-16T04:23:53.105Z,101096.02
2018-05-16T04:24:56.466Z,101102.33
2018-05-16T04:25:59.779Z,101103.56
2018-05-16T04:27:03.106Z,101099.03
2018-05-16T04:28:06.451Z,101099.11
2018-05-16T04:29:09.744Z,101096.02
2018-05-16T04:30:13.077Z,101100.45
2018-05-16T04:31:16.395Z,101104.83
2018-05-16T04:32:19.740Z,101106.59
2018-05-16T04:33:23.069Z,101105.09
2018-05-16T04:34:26.433Z,101107.26
2018-05-16T04:35:29.872Z,101104.91
2018-05-16T04:36:33.114Z,101113.41
2018-05-16T04:37:36.505Z,101113.33
2018-05-16T04:38:39.887Z,101111.37
2018-05-16T04:39:43.302Z,101115.67
2018-05-16T04:40:46.651Z,101113.33
2018-05-16T04:41:50.006Z,101117.18
2018-05-16T04:42:53.320Z,101118.87
2018-05-16T04:43:56.625Z,101120.03
2018-05-16T04:45:00.198Z,101122.64
2018-05-16T04:46:03.579Z,101118.87
2018-05-16T04:47:06.895Z,101127.18
2018-05-16T04:48:10.215Z,101128.76
2018-05-16T04:49:13.666Z,101126.49
2018-05-16T04:50:16.975Z,101131.64
2018-05-16T04:51:20.339Z,101134.64
2018-05-16T04:52:23.677Z,101133.56
2018-05-16T04:53:27.015Z,101135.64
2018-05-16T04:54:30.368Z,101135.91
2018-05-16T04:55:33.719Z,101139.77
2018-05-16T04:56:37.067Z,101143.64
2018-05-16T04:57:40.406Z,101141.30
2018-05-16T04:58:43.719Z,101141.61
2018-05-16T04:59:47.035Z,101147.76
2018-05-16T05:00:50.439Z,101149.10
2018-05-16T05:01:53.717Z,101154.64
2018-05-16T05:02:57.038Z,101156.67
2018-05-16T05:04:00.356Z,101158.70
2018-05-16T05:05:03.673Z,101154.41
2018-05-16T05:06:07.022Z,101152.33
2018-05-16T05:07:10.361Z,101148.87
2018-05-16T05:08:13.710Z,101143.98
2018-05-16T05:09:17.049Z,101143.98
2018-05-16T05:10:20.365Z,101148.02
2018-05-16T05:11:23.685Z,101152.91
2018-05-16T05:12:27.026Z,101151.48
2018-05-16T05:13:30.342Z,101157.36
2018-05-16T05:14:33.675Z,101151.48
2018-05-16T05:15:37.007Z,101156.25
2018-05-16T05:16:40.342Z,101153.22
2018-05-16T05:17:43.691Z,101157.25
2018-05-16T05:18:47.139Z,101163.72
2018-05-16T05:19:50.417Z,101162.45
2018-05-16T05:20:53.764Z,101167.10
2018-05-16T05:21:57.092Z,101165.91
2018-05-16T05:23:00.435Z,101163.59
2018-05-16T05:24:03.821Z,101165.87
2018-05-16T05:25:07.073Z,101162.88
2018-05-16T05:26:10.400Z,101168.92
2018-05-16T05:27:13.727Z,101169.55
2018-05-16T05:28:17.078Z,101168.75
2018-05-16T05:29:20.390Z,101167.34
2018-05-16T05:30:23.734Z,101166.85
2018-05-16T05:31:27.043Z,101167.76
2018-05-16T05:32:30.389Z,101162.98
2018-05-16T05:33:33.784Z,101170.20
2018-05-16T05:34:37.123Z,101168.09
2018-05-16T05:35:40.461Z,101165.05
2018-05-16T05:36:43.793Z,101170.04
2018-05-16T05:37:47.113Z,101165.25
2018-05-16T05:38:50.667Z,101167.30
2018-05-16T05:39:54.094Z,101170.01
2018-05-16T05:40:57.507Z,101173.30
2018-05-16T05:42:00.834Z,101169.19
2018-05-16T05:43:04.178Z,101176.95
2018-05-16T05:44:07.531Z,101177.92
2018-05-16T05:45:11.054Z,101171.19
2018-05-16T05:46:14.397Z,101170.75
2018-05-16T05:47:17.725Z,101172.14
2018-05-16T05:48:21.045Z,101172.70
2018-05-16T05:49:24.395Z,101164.70
2018-05-16T05:50:27.750Z,101170.36
2018-05-16T05:51:31.191Z,101161.77
2018-05-16T05:52:34.566Z,101164.28
2018-05-16T05:53:37.914Z,101169.86
2018-05-16T05:54:41.259Z,101179.69
2018-05-16T05:55:44.588Z,101181.20
2018-05-16T05:56:48.003Z,101177.69
2018-05-16T05:57:51.343Z,101183.85
2018-05-16T05:58:54.695Z,101180.17
2018-05-16T05:59:58.281Z,101177.16
2018-05-16T06:01:01.608Z,101181.67
2018-05-16T06:02:04.915Z,101179.48
2018-05-16T06:03:08.244Z,101179.60
2018-05-16T06:04:11.562Z,101180.24
2018-05-16T06:05:14.898Z,101177.60
2018-05-16T06:06:18.439Z,101185.32
2018-05-16T06:07:21.760Z,101177.56
2018-05-16T06:08:25.089Z,101179.31
2018-05-16T06:09:28.888Z,101185.36
2018-05-16T06:10:32.262Z,101182.22
2018-05-16T06:11:35.653Z,101177.16
2018-05-16T06:12:39.160Z,101175.20
2018-05-16T06:13:42.418Z,101178.30
2018-05-16T06:14:45.735Z,101178.89
2018-05-16T06:15:49.144Z,101180.72
2018-05-16T06:16:52.466Z,101179.34
2018-05-16T06:17:55.787Z,101180.73
2018-05-16T06:18:59.102Z,101180.33
2018-05-16T06:20:02.422Z,101180.36
2018-05-16T06:21:05.815Z,101179.95
2018-05-16T06:22:09.177Z,101183.44
2018-05-16T06:23:12.532Z,101185.91
2018-05-16T06:24:15.838Z,101184.97
2018-05-16T06:25:19.155Z,101182.84
2018-05-16T06:26:22.507Z,101181.94
2018-05-16T06:27:25.903Z,101184.17
2018-05-16T06:28:29.274Z,101183.66
2018-05-16T06:30:13.374Z,101185.02
2018-05-16T06:31:16.694Z,101184.73
2018-05-16T06:32:20.022Z,101185.11
2018-05-16T06:33:23.360Z,101183.47
2018-05-16T06:34:26.683Z,101185.10
2018-05-16T06:35:30.017Z,101186.03
2018-05-16T06:36:33.342Z,101186.33
2018-05-16T06:37:36.681Z,101183.13
2018-05-16T06:38:39.999Z,101178.77
2018-05-16T06:39:43.330Z,101179.06
2018-05-16T06:40:46.650Z,101179.71
2018-05-16T06:41:49.976Z,101177.39
2018-05-16T06:42:53.315Z,101184.05
2018-05-16T06:43:56.635Z,101183.41
2018-05-16T06:44:59.934Z,101186.98
2018-05-16T06:46:03.472Z,101191.39
2018-05-16T06:47:06.831Z,101197.41
2018-05-16T06:48:10.161Z,101199.16
2018-05-16T06:49:13.474Z,101199.20
2018-05-16T06:50:16.841Z,101209.91
2018-05-16T06:51:20.162Z,101202.00
2018-05-16T06:52:23.504Z,101197.57
2018-05-16T06:53:26.842Z,101202.92
2018-05-16T06:54:30.151Z,101202.51
2018-05-16T06:55:33.470Z,101192.75
2018-05-16T06:56:36.800Z,101195.87
2018-05-16T06:57:40.116Z,101190.66
2018-05-16T06:58:43.464Z,101192.16
2018-05-16T06:59:46.996Z,101194.08
2018-05-16T07:00:50.311Z,101188.84
2018-05-16T07:01:53.632Z,101189.34
2018-05-16T07:02:56.977Z,101194.32
2018-05-16T07:04:00.419Z,101193.53
2018-05-16T07:05:03.693Z,101197.81
2018-05-16T07:06:07.004Z,101195.69
2018-05-16T07:07:10.680Z,101192.33
2018-05-16T07:08:14.001Z,101192.87
2018-05-16T07:09:17.333Z,101194.33
2018-05-16T07:10:20.662Z,101203.25
2018-05-16T07:11:23.976Z,101199.95
2018-05-16T07:12:27.305Z,101200.78
2018-05-16T07:13:30.722Z,101203.20
2018-05-16T07:14:34.008Z,101202.53
2018-05-16T07:15:37.332Z,101204.34
2018-05-16T07:16:40.652Z,101214.17
2018-05-16T07:17:43.964Z,101208.93
2018-05-16T07:18:47.343Z,101208.64
2018-05-16T07:19:50.695Z,101216.82
2018-05-16T07:20:54.040Z,101211.68
2018-05-16T07:21:57.433Z,101208.09
2018-05-16T07:23:00.761Z,101220.01
2018-05-16T07:24:04.221Z,101221.24
2018-05-16T07:25:07.732Z,101224.59
2018-05-16T07:26:11.035Z,101218.66
2018-05-16T07:27:14.389Z,101224.96
2018-05-16T07:28:17.740Z,101226.66
2018-05-16T07:29:21.057Z,101221.61
2018-05-16T07:30:24.443Z,101227.80
2018-05-16T07:31:27.776Z,101226.25
2018-05-16T07:32:31.154Z,101221.23
2018-05-16T07:33:34.406Z,101220.69
2018-05-16T07:34:37.769Z,101216.16
2018-05-16T07:35:41.111Z,101218.27
2018-05-16T07:36:44.463Z,101216.28
2018-05-16T07:37:47.778Z,101219.20
2018-05-16T07:38:51.127Z,101218.48
2018-05-16T07:39:54.493Z,101221.38
2018-05-16T07:40:57.867Z,101224.32
2018-05-16T07:42:01.182Z,101224.41
2018-05-16T07:43:04.520Z,101222.30
2018-05-16T07:44:07.844Z,101225.52
2018-05-16T07:45:11.180Z,101220.07
2018-05-16T07:46:14.751Z,101220.37
2018-05-16T07:47:18.080Z,101218.45
2018-05-16T07:48:21.399Z,101217.39
2018-05-16T07:49:24.723Z,101218.92
2018-05-16T07:50:28.055Z,101215.66
2018-05-16T07:51:31.379Z,101214.61
2018-05-16T07:52:34.753Z,101221.05
2018-05-16T07:53:38.061Z,101219.26
2018-05-16T07:54:41.390Z,101219.86
2018-05-16T07:55:44.744Z,101222.38
2018-05-16T07:56:48.090Z,101217.47
2018-05-16T07:57:51.411Z,101216.53
2018-05-16T07:58:54.759Z,101222.38
2018-05-16T07:59:58.083Z,101221.95
2018-05-16T08:01:01.409Z,101231.55
2018-05-16T08:02:04.831Z,101230.92
2018-05-16T08:03:08.244Z,101229.13
2018-05-16T08:04:11.485Z,101230.23
2018-05-16T08:05:14.787Z,101226.03
2018-05-16T08:06:18.137Z,101231.61
2018-05-16T08:07:21.517Z,101224.37
2018-05-16T08:08:24.851Z,101224.44
2018-05-16T08:09:28.201Z,101223.81
2018-05-16T08:10:31.499Z,101221.29
2018-05-16T08:11:34.851Z,101223.25
2018-05-16T08:12:38.195Z,101220.96
2018-05-16T08:13:41.516Z,101224.09
2018-05-16T08:14:44.851Z,101221.71
2018-05-16T08:15:48.168Z,101225.47
2018-05-16T08:16:51.520Z,101223.71
2018-05-16T08:17:54.862Z,101226.35
2018-05-16T08:18:58.199Z,101225.95
2018-05-16T08:20:01.630Z,101223.95
2018-05-16T08:21:04.973Z,101226.27
2018-05-16T08:22:08.346Z,101227.53
2018-05-16T08:23:11.671Z,101223.64
2018-05-16T08:24:16.281Z,101228.36
2018-05-16T08:25:19.596Z,101228.39
2018-05-16T08:26:22.919Z,101229.77
2018-05-16T08:27:26.266Z,101226.75
2018-05-16T08:28:29.604Z,101226.77
2018-05-16T08:29:32.921Z,101224.38
2018-05-16T08:30:36.243Z,101221.15
2018-05-16T08:31:39.590Z,101226.06
2018-05-16T08:32:42.894Z,101229.49
2018-05-16T08:33:46.268Z,101224.30
2018-05-16T08:34:49.574Z,101226.70
2018-05-16T08:35:52.892Z,101221.27
2018-05-16T08:36:56.280Z,101231.98
2018-05-16T08:37:59.608Z,101231.35
2018-05-16T08:39:02.989Z,101231.37
2018-05-16T08:40:06.353Z,101232.31
2018-05-16T08:41:09.756Z,101229.42
2018-05-16T08:42:13.062Z,101231.73
2018-05-16T08:43:16.388Z,101234.23
2018-05-16T08:44:19.718Z,101228.28
2018-05-16T08:45:23.029Z,101234.23
2018-05-16T08:46:26.548Z,101234.97
2018-05-16T08:47:29.858Z,101233.41
2018-05-16T08:48:33.192Z,101230.04
2018-05-16T08:49:36.959Z,101230.77
2018-05-16T08:50:40.272Z,101237.88
2018-05-16T08:51:43.590Z,101241.10
2018-05-16T08:52:46.908Z,101242.23
2018-05-16T08:53:50.228Z,101234.92
2018-05-16T08:54:53.562Z,101238.06
2018-05-16T08:55:56.916Z,101242.98
2018-05-16T08:57:00.244Z,101243.17
2018-05-16T08:58:03.563Z,101250.37
2018-05-16T08:59:06.903Z,101250.80
2018-05-16T09:00:10.245Z,101251.64
2018-05-16T09:01:13.581Z,101249.95
2018-05-16T09:02:16.904Z,101252.80
2018-05-16T09:03:20.221Z,101252.24
2018-05-16T09:04:23.544Z,101247.22
2018-05-16T09:05:26.889Z,101254.34
2018-05-16T09:06:30.237Z,101252.37
2018-05-16T09:07:33.538Z,101249.95
2018-05-16T09:08:36.882Z,101250.78
2018-05-16T09:09:40.193Z,101246.72
2018-05-16T09:10:43.537Z,101253.19
2018-05-16T09:11:46.852Z,101255.10
2018-05-16T09:12:50.176Z,101256.05
2018-05-16T09:13:53.482Z,101263.56
2018-05-16T09:14:56.795Z,101253.77
2018-05-16T09:16:00.142Z,101254.06
2018-05-16T09:17:03.491Z,101248.53
2018-05-16T09:18:06.819Z,101253.45
2018-05-16T09:19:10.159Z,101256.68
2018-05-16T09:20:13.462Z,101261.17
2018-05-16T09:21:16.817Z,101256.49
2018-05-16T09:22:20.320Z,101255.23
2018-05-16T09:23:23.726Z,101254.19
2018-05-16T09:24:27.066Z,101258.14
2018-05-16T09:25:30.849Z,101261.91
2018-05-16T09:26:34.166Z,101262.41
2018-05-16T09:27:37.474Z,101261.55
2018-05-16T09:28:40.804Z,101261.11
2018-05-16T09:29:44.141Z,101266.39
2018-05-16T09:30:47.451Z,101263.45
2018-05-16T09:31:50.790Z,101260.55
2018-05-16T09:32:54.121Z,101256.05
2018-05-16T09:33:57.416Z,101255.53
2018-05-16T09:35:00.731Z,101259.80
2018-05-16T09:36:04.075Z,101256.88
2018-05-16T09:37:07.709Z,101256.13
2018-05-16T09:38:11.032Z,101253.63
2018-05-16T09:39:14.368Z,101250.36
2018-05-16T09:40:17.783Z,101257.45
2018-05-16T09:41:21.026Z,101252.25
2018-05-16T09:42:24.420Z,101249.20
2018-05-16T09:43:27.659Z,101252.94
2018-05-16T09:44:30.975Z,101250.63
2018-05-16T09:45:34.388Z,101249.91
2018-05-16T09:46:38.461Z,101248.74
2018-05-16T09:47:41.807Z,101252.92
2018-05-16T09:48:45.185Z,101247.73
2018-05-16T09:49:48.509Z,101248.02
2018-05-16T09:50:51.831Z,101243.77
2018-05-16T09:51:55.153Z,101248.97
2018-05-16T09:52:58.487Z,101242.94
2018-05-16T09:54:01.808Z,101247.95
2018-05-16T09:55:05.119Z,101250.48
2018-05-16T09:56:08.472Z,101242.21
2018-05-16T09:57:12.615Z,101246.19
2018-05-16T09:58:15.958Z,101244.42
2018-05-16T09:59:19.271Z,101244.96
2018-05-16T10:00:28.105Z,101242.20
2018-05-16T10:01:31.423Z,101238.56
2018-05-16T10:02:34.801Z,101244.11
2018-05-16T10:03:38.149Z,101249.97
2018-05-16T10:04:41.486Z,101252.27
2018-05-16T10:05:45.032Z,101251.74
2018-05-16T10:06:48.350Z,101250.61
2018-05-16T10:07:51.665Z,101252.80
2018-05-16T10:08:55.056Z,101254.16
2018-05-16T10:09:58.340Z,101252.80
2018-05-16T10:11:01.660Z,101251.45
2018-05-16T10:12:04.999Z,101254.45
2018-05-16T10:13:08.355Z,101257.70
2018-05-16T10:14:11.708Z,101264.63
2018-05-16T10:15:15.034Z,101257.18
2018-05-16T10:16:18.358Z,101261.67
2018-05-16T10:17:21.666Z,101256.13
2018-05-16T10:18:25.005Z,101260.30
2018-05-16T10:19:28.358Z,101253.73
2018-05-16T10:20:31.689Z,101262.48
2018-05-16T10:21:35.033Z,101264.26
2018-05-16T10:22:38.366Z,101263.64
2018-05-16T10:23:41.795Z,101266.86
2018-05-16T10:24:45.051Z,101260.68
2018-05-16T10:25:48.388Z,101262.55
2018-05-16T10:26:51.701Z,101269.34
2018-05-16T10:27:55.046Z,101261.20
2018-05-16T10:28:58.363Z,101264.52
2018-05-16T10:30:01.778Z,101266.06
2018-05-16T10:31:05.066Z,101262.94
2018-05-16T10:32:08.381Z,101258.86
2018-05-16T10:33:11.692Z,101256.05
2018-05-16T10:34:15.019Z,101256.70
2018-05-16T10:35:18.575Z,101260.78
2018-05-16T10:36:21.645Z,101265.75
2018-05-16T10:37:24.949Z,101263.03
2018-05-16T10:38:28.296Z,101261.98
2018-05-16T10:39:31.646Z,101258.13
2018-05-16T10:40:34.963Z,101266.15
2018-05-16T10:41:38.266Z,101263.35
2018-05-16T10:42:41.579Z,101268.41
2018-05-16T10:43:44.887Z,101270.20
2018-05-16T10:44:48.198Z,101268.23
2018-05-16T10:45:51.521Z,101265.38
2018-05-16T10:46:54.972Z,101261.73
2018-05-16T10:47:58.274Z,101267.48
2018-05-16T10:49:01.594Z,101271.89
2018-05-16T10:50:04.963Z,101268.43
2018-05-16T10:51:08.306Z,101274.37
2018-05-16T10:52:11.688Z,101273.95
2018-05-16T10:53:14.933Z,101276.56
2018-05-16T10:54:18.280Z,101278.66
2018-05-16T10:55:21.599Z,101285.11
2018-05-16T10:56:24.939Z,101279.33
2018-05-16T10:57:28.443Z,101277.02
2018-05-16T10:58:31.762Z,101287.03
2018-05-16T10:59:35.112Z,101291.62
2018-05-16T11:00:38.758Z,101291.88
2018-05-16T11:01:42.094Z,101283.30
2018-05-16T11:02:45.555Z,101285.72
2018-05-16T11:03:48.913Z,101290.63
2018-05-16T11:04:52.229Z,101280.30
2018-05-16T11:05:55.574Z,101287.70
2018-05-16T11:06:58.922Z,101287.94
2018-05-16T11:08:02.316Z,101286.36
2018-05-16T11:09:06.616Z,101280.10
2018-05-16T11:10:09.936Z,101289.42
2018-05-16T11:11:13.259Z,101290.68
2018-05-16T11:12:16.727Z,101286.19
2018-05-16T11:13:19.985Z,101281.56
2018-05-16T11:14:23.287Z,101285.11
2018-05-16T11:15:26.623Z,101287.28
2018-05-16T11:16:29.949Z,101282.73
2018-05-16T11:17:33.548Z,101284.81
2018-05-16T11:18:36.857Z,101279.55
2018-05-16T11:19:40.353Z,101287.25
2018-05-16T11:20:43.681Z,101283.52
2018-05-16T11:21:46.989Z,101284.27
2018-05-16T11:22:50.327Z,101286.48
2018-05-16T11:23:53.638Z,101290.02
2018-05-16T11:24:56.950Z,101277.97
2018-05-16T11:26:00.286Z,101283.52
2018-05-16T11:27:03.605Z,101278.31
2018-05-16T11:28:07.373Z,101280.85
2018-05-16T11:29:12.560Z,101280.35
2018-05-16T11:30:16.837Z,101278.27
2018-05-16T11:31:20.171Z,101280.58
2018-05-16T11:32:23.490Z,101274.96
2018-05-16T11:33:26.824Z,101278.56
2018-05-16T11:34:30.147Z,101280.74
2018-05-16T11:35:33.472Z,101286.19
2018-05-16T11:36:36.781Z,101277.75
2018-05-16T11:37:40.125Z,101275.14
2018-05-16T11:38:43.444Z,101280.90
2018-05-16T11:39:46.784Z,101280.05
2018-05-16T11:40:50.113Z,101281.52
2018-05-16T11:41:53.422Z,101276.39
2018-05-16T11:42:56.734Z,101278.36
2018-05-16T11:44:00.073Z,101287.35
2018-05-16T11:45:03.391Z,101281.19
2018-05-16T11:46:06.699Z,101281.61
2018-05-16T11:47:10.287Z,101279.42
2018-05-16T11:48:13.611Z,101279.84
2018-05-16T11:49:16.954Z,101282.78
2018-05-16T11:50:20.274Z,101281.09
2018-05-16T11:51:23.593Z,101282.88
2018-05-16T11:52:26.913Z,101283.20
2018-05-16T11:53:30.235Z,101273.58
2018-05-16T11:54:33.769Z,101272.13
2018-05-16T11:55:37.284Z,101275.28
2018-05-16T11:56:40.604Z,101267.66
2018-05-16T11:57:43.909Z,101273.22
2018-05-16T11:58:47.233Z,101275.72
2018-05-16T11:59:50.567Z,101278.63
2018-05-16T12:00:53.871Z,101278.86
2018-05-16T12:01:57.182Z,101283.55
2018-05-16T12:03:00.501Z,101281.48
2018-05-16T12:04:03.815Z,101278.77
2018-05-16T12:05:07.150Z,101279.90